Time;durP1;ratioP1;P1;durP2;ratioP2;P2;SDS_P1;SDS_P2;PMS_P1;PMS_P2;Temp;Humidity;BMP_temperature;BMP_pressure;BME280_temperature;BME280_humidity;BME280_pressure;Samples;Min_cycle;Max_cycle;Signal;HPM_P1;HPM_P2
2021/03/13 00:00:41;;;;;;;4.20;1.10;;;4.90;99.90;;;;;;4986780;28;20041;-78
2021/03/13 00:03:07;;;;;;;4.05;1.40;;;4.90;99.90;;;;;;4987358;28;20693;-78
2021/03/13 00:05:35;;;;;;;5.93;1.60;;;5.00;99.90;;;;;;5002645;28;20029;-78
2021/03/13 00:08:01;;;;;;;3.97;1.20;;;5.00;99.90;;;;;;4986501;28;20457;-77
2021/03/13 00:10:27;;;;;;;2.08;1.20;;;5.00;99.90;;;;;;5019992;28;20103;-78
2021/03/13 00:12:53;;;;;;;4.90;1.40;;;5.00;99.90;;;;;;5000152;28;20124;-78
2021/03/13 00:15:19;;;;;;;7.20;1.63;;;5.00;99.90;;;;;;5019201;28;20037;-78
2021/03/13 00:17:47;;;;;;;4.35;1.30;;;5.00;99.90;;;;;;4991219;28;20038;-78
2021/03/13 00:20:16;;;;;;;3.92;1.40;;;5.00;99.90;;;;;;5000394;28;20091;-77
2021/03/13 00:22:43;;;;;;;5.03;1.83;;;5.00;99.90;;;;;;5019623;28;20075;-77
2021/03/13 00:25:09;;;;;;;8.48;1.45;;;5.00;99.90;;;;;;5001687;28;20041;-77
2021/03/13 00:27:45;;;;;;;3.90;1.30;;;5.10;99.90;;;;;;4996197;28;20041;-76
2021/03/13 00:30:29;;;;;;;4.15;1.30;;;5.20;99.90;;;;;;5004203;28;20464;-76
2021/03/13 00:33:04;;;;;;;6.65;1.30;;;5.10;99.90;;;;;;4983183;28;20048;-76
2021/03/13 00:35:31;;;;;;;3.13;1.20;;;5.10;99.90;;;;;;5001359;28;20037;-76
2021/03/13 00:37:58;;;;;;;3.60;1.42;;;5.10;99.90;;;;;;5019518;28;20071;-76
2021/03/13 00:40:27;;;;;;;4.53;1.50;;;5.10;99.90;;;;;;5001994;28;20052;-76
2021/03/13 00:42:53;;;;;;;8.18;1.35;;;5.10;99.90;;;;;;4994429;28;20632;-75
2021/03/13 00:45:21;;;;;;;3.88;1.50;;;5.10;99.90;;;;;;5017434;28;20033;-75
2021/03/13 00:47:48;;;;;;;3.22;1.40;;;5.10;99.90;;;;;;4999915;28;20405;-75
2021/03/13 00:50:16;;;;;;;3.28;1.23;;;5.10;99.90;;;;;;5001648;28;20038;-74
2021/03/13 00:52:42;;;;;;;5.10;1.58;;;5.10;99.90;;;;;;4991343;28;20029;-75
2021/03/13 00:55:09;;;;;;;11.48;1.60;;;5.10;99.90;;;;;;4991814;28;20043;-75
2021/03/13 00:57:38;;;;;;;4.53;1.30;;;5.10;99.90;;;;;;5022393;28;20762;-75
2021/03/13 01:00:09;;;;;;;3.90;1.80;;;5.10;99.90;;;;;;5008856;28;20033;-75
2021/03/13 01:02:35;;;;;;;3.65;1.73;;;5.10;99.90;;;;;;4991680;28;20040;-75
2021/03/13 01:05:01;;;;;;;8.15;1.80;;;5.10;99.90;;;;;;4992386;28;20632;-75
2021/03/13 01:07:29;;;;;;;5.90;1.90;;;5.20;99.90;;;;;;5025468;28;20505;-75
2021/03/13 01:09:54;;;;;;;3.10;1.70;;;5.20;99.90;;;;;;5005810;28;20133;-75
2021/03/13 01:12:20;;;;;;;6.03;1.80;;;5.20;99.90;;;;;;5002889;28;20103;-75
2021/03/13 01:14:46;;;;;;;3.58;1.90;;;5.20;99.90;;;;;;5009503;28;20493;-75
2021/03/13 01:17:12;;;;;;;7.30;2.30;;;5.20;99.90;;;;;;5025717;28;20079;-75
2021/03/13 01:19:38;;;;;;;2.25;1.38;;;5.20;99.90;;;;;;5009453;28;20033;-75
2021/03/13 01:22:03;;;;;;;6.55;2.00;;;5.20;99.90;;;;;;4992972;28;20434;-74
2021/03/13 01:24:29;;;;;;;5.57;1.98;;;5.10;99.90;;;;;;4992973;28;20040;-75
2021/03/13 01:26:56;;;;;;;4.30;1.90;;;5.10;99.90;;;;;;5024836;28;20044;-75
2021/03/13 01:29:22;;;;;;;4.22;2.53;;;5.10;99.90;;;;;;5008250;28;20033;-75
2021/03/13 01:31:51;;;;;;;3.72;1.77;;;5.10;99.90;;;;;;4992993;28;20029;-75
2021/03/13 01:34:24;;;;;;;5.32;1.80;;;5.10;99.90;;;;;;5008217;28;20026;-75
2021/03/13 01:36:59;;;;;;;6.55;2.10;;;5.00;99.90;;;;;;5007883;28;20490;-74
2021/03/13 01:39:26;;;;;;;5.63;1.95;;;5.00;99.90;;;;;;5008153;28;20037;-75
2021/03/13 01:41:52;;;;;;;4.68;2.20;;;5.00;99.90;;;;;;5018186;28;20033;-75
2021/03/13 01:44:18;;;;;;;3.45;2.25;;;5.00;99.90;;;;;;5020030;28;20069;-74
2021/03/13 01:46:45;;;;;;;4.32;1.75;;;5.00;99.90;;;;;;5008343;28;20588;-75
2021/03/13 01:49:19;;;;;;;4.63;1.95;;;5.00;99.90;;;;;;4986636;28;20514;-74
2021/03/13 01:51:46;;;;;;;8.52;2.28;;;4.80;99.90;;;;;;4990674;28;20037;-75
2021/03/13 01:54:13;;;;;;;7.20;3.33;;;4.80;99.90;;;;;;5022486;28;20038;-75
2021/03/13 01:56:39;;;;;;;4.13;2.63;;;4.80;99.90;;;;;;4997546;28;20040;-75
2021/03/13 01:59:05;;;;;;;7.60;2.55;;;4.80;99.90;;;;;;4988628;28;20067;-75
2021/03/13 02:01:38;;;;;;;3.45;2.28;;;4.70;99.90;;;;;;4988164;28;20033;-75
2021/03/13 02:04:04;;;;;;;4.55;2.15;;;4.70;99.90;;;;;;5001251;28;20660;-75
2021/03/13 02:06:31;;;;;;;5.95;2.30;;;4.80;99.90;;;;;;4978951;28;20596;-75
2021/03/13 02:09:10;;;;;;;2.97;2.25;;;4.80;99.90;;;;;;5001687;28;20040;-75
2021/03/13 02:11:58;;;;;;;3.05;1.92;;;4.90;99.90;;;;;;5015966;28;20168;-75
2021/03/13 02:14:33;;;;;;;7.70;2.50;;;5.00;99.90;;;;;;5008800;28;20290;-75
2021/03/13 02:17:40;;;;;;;5.47;2.50;;;5.00;99.90;;;;;;4985718;28;20064;-76
2021/03/13 02:20:41;;;;;;;10.85;2.40;;;5.00;99.90;;;;;;4997854;28;20065;-75
2021/03/13 02:23:14;;;;;;;6.60;2.72;;;5.10;99.90;;;;;;4998493;28;20075;-75
2021/03/13 02:26:11;;;;;;;8.52;2.50;;;5.10;99.90;;;;;;4997049;28;20119;-75
2021/03/13 02:29:16;;;;;;;12.10;2.70;;;5.00;99.90;;;;;;5000105;28;20087;-75
2021/03/13 02:31:55;;;;;;;6.35;2.53;;;5.00;99.90;;;;;;5016018;28;20375;-75
2021/03/13 02:34:29;;;;;;;4.30;2.47;;;5.00;99.90;;;;;;5000224;28;20124;-75
2021/03/13 02:37:00;;;;;;;8.48;2.50;;;4.90;99.90;;;;;;5016522;28;20109;-75
2021/03/13 02:39:28;;;;;;;8.55;2.85;;;4.90;99.90;;;;;;4986120;28;20547;-74
2021/03/13 02:42:02;;;;;;;8.63;2.47;;;4.90;99.90;;;;;;4986239;28;20037;-75
2021/03/13 02:44:34;;;;;;;4.90;2.35;;;5.00;99.90;;;;;;4986115;28;20037;-75
2021/03/13 02:47:07;;;;;;;3.80;2.50;;;4.90;99.90;;;;;;4983982;28;20033;-75
2021/03/13 02:49:43;;;;;;;4.28;2.30;;;4.90;99.90;;;;;;5000464;28;20044;-74
2021/03/13 02:52:18;;;;;;;9.88;2.40;;;4.80;99.90;;;;;;4984674;28;20029;-74
2021/03/13 02:54:48;;;;;;;9.98;2.10;;;4.70;99.90;;;;;;4984654;28;20040;-75
2021/03/13 02:57:19;;;;;;;5.68;2.40;;;4.70;99.90;;;;;;4997248;28;20859;-75
2021/03/13 02:59:47;;;;;;;2.53;2.00;;;4.60;99.90;;;;;;5016827;28;20037;-73
2021/03/13 03:02:16;;;;;;;3.85;2.08;;;4.50;99.90;;;;;;4983595;28;20040;-74
2021/03/13 03:04:43;;;;;;;3.03;2.10;;;4.50;99.90;;;;;;4983123;28;20036;-74
2021/03/13 03:07:12;;;;;;;3.03;1.83;;;4.50;99.90;;;;;;4999155;28;20029;-74
2021/03/13 03:09:40;;;;;;;5.90;2.17;;;4.50;99.90;;;;;;4993702;28;20033;-74
2021/03/13 03:12:09;;;;;;;3.03;1.92;;;4.50;99.90;;;;;;4983412;28;20041;-74
2021/03/13 03:14:40;;;;;;;2.83;2.00;;;4.50;99.90;;;;;;4983268;28;20072;-74
2021/03/13 03:17:07;;;;;;;3.95;1.80;;;4.60;99.90;;;;;;4999356;28;20036;-74
2021/03/13 03:19:40;;;;;;;2.83;1.88;;;4.70;99.90;;;;;;4983844;28;20037;-73
2021/03/13 03:22:11;;;;;;;4.18;1.80;;;4.70;99.90;;;;;;5016826;28;20033;-74
2021/03/13 03:24:40;;;;;;;3.88;2.22;;;4.70;99.90;;;;;;4980932;28;20038;-74
2021/03/13 03:27:06;;;;;;;4.97;2.20;;;4.70;99.90;;;;;;4997189;28;20064;-74
2021/03/13 03:29:36;;;;;;;6.82;2.05;;;4.60;99.90;;;;;;4983426;28;20952;-73
2021/03/13 03:32:03;;;;;;;3.58;1.80;;;4.60;99.90;;;;;;4999046;28;20678;-73
2021/03/13 03:34:30;;;;;;;3.50;1.63;;;4.60;99.90;;;;;;5015958;28;20108;-74
2021/03/13 03:36:58;;;;;;;3.63;1.83;;;4.60;99.90;;;;;;4982346;28;20041;-74
2021/03/13 03:39:24;;;;;;;4.60;2.03;;;4.60;99.90;;;;;;4982698;28;20520;-74
2021/03/13 03:41:53;;;;;;;4.20;1.70;;;4.60;99.90;;;;;;5015252;28;20562;-74
2021/03/13 03:44:26;;;;;;;4.35;1.90;;;4.50;99.90;;;;;;4999517;28;20671;-74
2021/03/13 03:47:04;;;;;;;5.53;1.80;;;4.50;99.90;;;;;;5014754;28;20033;-74
2021/03/13 03:49:33;;;;;;;5.50;1.70;;;4.50;99.90;;;;;;4982787;28;20837;-74
2021/03/13 03:52:11;;;;;;;4.10;1.65;;;4.50;99.90;;;;;;4981781;28;20033;-74
2021/03/13 03:54:38;;;;;;;6.22;1.98;;;4.50;99.90;;;;;;5014921;28;20033;-74
2021/03/13 03:57:09;;;;;;;3.47;2.00;;;4.40;99.90;;;;;;5013923;28;20021;-74
2021/03/13 03:59:36;;;;;;;4.45;1.80;;;4.50;99.90;;;;;;4982535;28;20044;-74
2021/03/13 04:02:02;;;;;;;4.20;1.75;;;4.40;99.90;;;;;;5015239;28;20545;-74
2021/03/13 04:04:29;;;;;;;3.75;2.03;;;4.40;99.90;;;;;;4982696;28;20493;-74
2021/03/13 04:06:57;;;;;;;3.67;1.60;;;4.40;99.90;;;;;;5013198;28;20489;-74
2021/03/13 04:09:25;;;;;;;4.35;1.65;;;4.40;99.90;;;;;;4981541;28;20124;-74
2021/03/13 04:11:52;;;;;;;4.00;1.75;;;4.40;99.90;;;;;;4998811;28;20021;-74
2021/03/13 04:14:18;;;;;;;4.65;1.63;;;4.30;99.90;;;;;;4998179;28;20021;-75
2021/03/13 04:16:44;;;;;;;4.13;1.92;;;4.30;99.90;;;;;;5013375;28;20029;-75
2021/03/13 04:19:11;;;;;;;2.72;1.92;;;4.30;99.90;;;;;;4992810;28;20045;-71
2021/03/13 04:21:38;;;;;;;3.42;1.80;;;4.30;99.90;;;;;;4997323;28;20788;-72
2021/03/13 04:24:05;;;;;;;4.03;1.90;;;4.30;99.90;;;;;;5015718;28;20037;-72
2021/03/13 04:26:32;;;;;;;3.72;1.80;;;4.30;99.90;;;;;;4980157;28;20033;-72
2021/03/13 04:28:58;;;;;;;5.35;2.00;;;4.40;99.90;;;;;;5016431;28;20029;-72
2021/03/13 04:31:30;;;;;;;4.43;1.90;;;4.50;99.90;;;;;;5011699;28;20154;-74
2021/03/13 04:33:57;;;;;;;2.85;1.50;;;4.50;99.90;;;;;;5008047;28;20138;-73
2021/03/13 04:36:26;;;;;;;4.65;1.58;;;4.60;99.90;;;;;;5015171;28;20033;-72
2021/03/13 04:38:53;;;;;;;6.05;2.25;;;4.60;99.90;;;;;;5015630;28;20068;-71
2021/03/13 04:41:20;;;;;;;6.63;2.72;;;4.60;99.90;;;;;;4983395;28;20042;-72
2021/03/13 04:43:46;;;;;;;7.35;1.90;;;4.60;99.90;;;;;;4999048;28;20039;-74
2021/03/13 04:46:13;;;;;;;5.45;1.80;;;4.60;99.90;;;;;;4999024;28;20041;-74
2021/03/13 04:48:38;;;;;;;3.80;1.60;;;4.60;99.90;;;;;;5013953;28;20042;-74
2021/03/13 04:51:06;;;;;;;3.30;1.55;;;4.50;99.90;;;;;;5009231;28;20560;-74
2021/03/13 04:53:32;;;;;;;2.92;1.58;;;4.60;99.90;;;;;;5015918;28;20049;-74
2021/03/13 04:55:58;;;;;;;2.58;1.85;;;4.50;99.90;;;;;;4982034;28;20160;-75
2021/03/13 04:58:24;;;;;;;2.67;1.40;;;4.50;99.90;;;;;;5014882;28;20029;-75
2021/03/13 05:00:52;;;;;;;6.00;1.70;;;4.50;99.90;;;;;;5009790;28;20044;-80
2021/03/13 05:03:18;;;;;;;4.05;1.80;;;4.50;99.90;;;;;;4997465;28;20038;-76
2021/03/13 05:05:44;;;;;;;6.65;1.75;;;4.50;99.90;;;;;;4981027;28;20037;-73
2021/03/13 05:08:10;;;;;;;5.30;1.90;;;4.50;99.90;;;;;;4980840;28;20065;-74
2021/03/13 05:10:35;;;;;;;6.00;1.73;;;4.50;99.90;;;;;;4995223;28;20125;-75
2021/03/13 05:13:01;;;;;;;5.70;1.98;;;4.50;99.90;;;;;;4997831;28;20041;-74
2021/03/13 05:15:27;;;;;;;4.07;1.95;;;4.50;99.90;;;;;;4978217;28;20124;-73
2021/03/13 05:17:53;;;;;;;3.13;1.50;;;4.60;99.90;;;;;;4997723;28;20040;-72
2021/03/13 05:20:18;;;;;;;4.88;1.83;;;4.60;99.90;;;;;;4998178;28;20551;-73
2021/03/13 05:22:51;;;;;;;5.88;1.80;;;4.70;99.90;;;;;;4997647;28;20056;-72
2021/03/13 05:25:17;;;;;;;3.90;1.80;;;4.80;99.90;;;;;;4981815;28;20040;-73
2021/03/13 05:27:43;;;;;;;5.93;1.85;;;4.90;99.90;;;;;;4995897;28;20686;-73
2021/03/13 05:30:11;;;;;;;2.33;1.70;;;5.00;99.90;;;;;;5016064;28;20037;-73
2021/03/13 05:32:37;;;;;;;3.13;1.83;;;5.10;99.90;;;;;;4992333;28;20037;-73
2021/03/13 05:35:09;;;;;;;3.50;1.60;;;5.20;99.90;;;;;;4982087;28;20033;-72
2021/03/13 05:37:35;;;;;;;3.42;2.03;;;5.30;99.90;;;;;;5013799;28;20781;-72
2021/03/13 05:40:06;;;;;;;5.53;1.90;;;5.30;99.90;;;;;;4994080;28;20044;-74
2021/03/13 05:42:32;;;;;;;7.63;2.22;;;5.40;99.90;;;;;;4985134;28;20033;-73
2021/03/13 05:44:58;;;;;;;6.45;2.97;;;5.50;99.90;;;;;;5017103;28;20048;-68
2021/03/13 05:47:26;;;;;;;5.32;2.33;;;5.50;99.90;;;;;;5018883;28;20040;-65
2021/03/13 05:50:01;;;;;;;3.40;2.10;;;5.50;99.90;;;;;;5014004;28;20405;-66
2021/03/13 05:52:31;;;;;;;2.95;1.92;;;5.50;99.90;;;;;;4994509;28;20061;-65
2021/03/13 05:54:57;;;;;;;6.00;2.15;;;5.60;99.90;;;;;;5018990;28;20110;-65
2021/03/13 05:57:23;;;;;;;4.43;2.17;;;5.60;99.90;;;;;;5019667;28;20873;-65
2021/03/13 05:59:50;;;;;;;7.40;2.30;;;5.60;99.90;;;;;;5018452;28;20037;-65
2021/03/13 06:02:17;;;;;;;5.25;1.98;;;5.70;99.90;;;;;;5001148;28;20038;-65
2021/03/13 06:04:43;;;;;;;5.95;2.22;;;5.60;99.90;;;;;;5010771;28;20068;-65
2021/03/13 06:07:13;;;;;;;5.05;2.17;;;5.60;99.90;;;;;;5018005;28;20376;-67
2021/03/13 06:09:39;;;;;;;6.65;2.50;;;5.60;99.90;;;;;;5018853;28;20673;-66
2021/03/13 06:12:06;;;;;;;3.75;2.17;;;5.60;99.90;;;;;;5019236;28;20092;-67
2021/03/13 06:14:32;;;;;;;8.02;2.10;;;5.60;99.90;;;;;;4999875;28;20038;-67
2021/03/13 06:16:58;;;;;;;3.80;2.03;;;5.60;99.90;;;;;;5016682;28;20033;-67
2021/03/13 06:19:23;;;;;;;5.38;2.20;;;5.70;99.90;;;;;;5019443;28;20038;-66
2021/03/13 06:21:49;;;;;;;5.90;2.70;;;5.80;99.90;;;;;;5018533;28;20196;-66
2021/03/13 06:24:24;;;;;;;4.00;2.00;;;5.90;99.90;;;;;;5000551;28;20029;-66
2021/03/13 06:27:00;;;;;;;4.75;2.92;;;5.90;99.90;;;;;;4999692;28;20033;-66
2021/03/13 06:29:27;;;;;;;9.50;3.28;;;5.80;99.90;;;;;;5000230;28;20046;-67
2021/03/13 06:32:12;;;;;;;10.10;5.00;;;5.80;99.90;;;;;;5012601;28;20556;-66
2021/03/13 06:34:38;;;;;;;9.63;2.97;;;5.90;99.90;;;;;;5016505;28;20048;-66
2021/03/13 06:37:26;;;;;;;5.78;2.55;;;5.90;99.90;;;;;;4999404;28;20041;-65
2021/03/13 06:39:53;;;;;;;3.58;1.75;;;5.90;99.90;;;;;;5018258;28;20052;-66
2021/03/13 06:42:21;;;;;;;2.70;1.98;;;6.00;99.90;;;;;;5018037;28;20033;-66
2021/03/13 06:44:58;;;;;;;7.20;2.45;;;5.90;99.90;;;;;;5017924;28;20748;-66
2021/03/13 06:47:36;;;;;;;6.43;2.03;;;5.90;99.90;;;;;;5017795;28;20098;-66
2021/03/13 06:50:13;;;;;;;4.53;2.00;;;6.00;99.90;;;;;;5013017;28;20041;-65
2021/03/13 06:52:41;;;;;;;5.82;2.00;;;5.90;99.90;;;;;;5000207;28;20037;-68
2021/03/13 06:55:14;;;;;;;8.88;2.15;;;6.00;99.90;;;;;;5018196;28;20029;-66
2021/03/13 06:57:39;;;;;;;6.60;2.40;;;6.00;99.90;;;;;;5019596;28;20095;-67
2021/03/13 07:00:07;;;;;;;3.45;2.20;;;6.00;99.90;;;;;;4985004;28;20045;-67
2021/03/13 07:02:32;;;;;;;4.72;2.30;;;6.00;99.90;;;;;;5019484;28;20060;-67
2021/03/13 07:05:09;;;;;;;4.72;2.25;;;6.10;99.90;;;;;;5011719;28;20814;-67
2021/03/13 07:07:35;;;;;;;6.70;2.60;;;6.00;99.90;;;;;;5017660;28;20607;-67
2021/03/13 07:10:07;;;;;;;4.88;2.47;;;5.90;99.90;;;;;;4999116;28;20041;-67
2021/03/13 07:12:40;;;;;;;6.85;2.53;;;5.90;99.90;;;;;;5017691;28;20120;-67
2021/03/13 07:15:22;;;;;;;4.88;2.60;;;5.90;99.90;;;;;;5016501;28;20447;-66
2021/03/13 07:17:51;;;;;;;4.10;2.67;;;5.90;99.90;;;;;;5016896;28;20044;-66
2021/03/13 07:20:22;;;;;;;5.07;2.30;;;5.90;99.90;;;;;;5017536;28;20132;-66
2021/03/13 07:22:53;;;;;;;4.05;2.50;;;5.90;99.90;;;;;;4998749;28;20033;-67
2021/03/13 07:25:21;;;;;;;6.30;2.70;;;5.90;99.90;;;;;;5016971;28;20041;-66
2021/03/13 07:27:53;;;;;;;3.63;2.40;;;5.80;99.90;;;;;;5015161;28;20517;-68
2021/03/13 07:30:20;;;;;;;5.22;2.65;;;5.70;99.90;;;;;;5011177;28;20465;-68
2021/03/13 07:32:59;;;;;;;8.20;3.00;;;5.70;99.90;;;;;;5010100;28;20461;-68
2021/03/13 07:35:28;;;;;;;4.88;2.97;;;5.80;99.90;;;;;;5016641;28;20044;-68
2021/03/13 07:37:55;;;;;;;5.05;3.15;;;5.80;99.90;;;;;;5009066;28;20425;-67
2021/03/13 07:40:22;;;;;;;4.93;3.22;;;5.80;99.90;;;;;;5017459;28;20639;-67
2021/03/13 07:42:49;;;;;;;7.47;3.22;;;5.70;99.90;;;;;;5010495;28;20029;-67
2021/03/13 07:45:15;;;;;;;7.97;3.40;;;5.80;99.90;;;;;;5014341;28;20037;-66
2021/03/13 07:47:42;;;;;;;5.35;3.03;;;5.80;99.90;;;;;;5017180;28;20137;-68
2021/03/13 07:50:10;;;;;;;5.72;2.97;;;5.80;99.90;;;;;;5017235;28;20065;-67
2021/03/13 07:52:40;;;;;;;8.48;2.92;;;5.80;99.90;;;;;;5010939;28;20045;-66
2021/03/13 07:55:13;;;;;;;5.88;2.83;;;5.70;99.90;;;;;;4998002;28;20052;-67
2021/03/13 07:57:45;;;;;;;7.72;3.92;;;5.60;99.90;;;;;;5014440;28;20041;-65
2021/03/13 08:00:11;;;;;;;5.88;3.40;;;5.60;99.90;;;;;;5015836;28;20037;-64
2021/03/13 08:02:42;;;;;;;8.88;3.13;;;5.60;99.90;;;;;;5008136;28;20037;-66
2021/03/13 08:05:13;;;;;;;7.75;3.28;;;5.60;99.90;;;;;;5037625;28;20686;-67
2021/03/13 08:07:56;;;;;;;7.30;3.15;;;5.70;99.90;;;;;;5053559;28;20064;-67
2021/03/13 08:10:50;;;;;;;7.45;3.03;;;5.80;99.90;;;;;;5054434;28;20043;-67
2021/03/13 08:13:25;;;;;;;6.72;3.30;;;5.70;99.90;;;;;;5036080;28;20515;-67
2021/03/13 08:15:51;;;;;;;9.73;4.05;;;5.80;99.90;;;;;;5033864;28;20068;-67
2021/03/13 08:18:48;;;;;;;6.28;3.05;;;5.80;99.90;;;;;;5053669;28;20142;-67
2021/03/13 08:21:19;;;;;;;6.32;3.58;;;5.80;99.90;;;;;;5053257;28;20036;-67
2021/03/13 08:23:55;;;;;;;6.32;3.25;;;5.80;99.90;;;;;;5054565;28;20635;-66
2021/03/13 08:26:41;;;;;;;6.00;3.20;;;5.80;99.90;;;;;;5055560;28;20472;-67
2021/03/13 08:29:08;;;;;;;28.10;11.90;;;5.80;99.90;;;;;;5056512;28;20178;-68
2021/03/13 08:31:46;;;;;;;6.70;2.90;;;5.80;99.90;;;;;;5055237;28;20036;-67
2021/03/13 08:34:18;;;;;;;5.28;2.85;;;5.80;99.90;;;;;;5036001;28;20040;-67
2021/03/13 08:36:47;;;;;;;5.72;3.28;;;5.80;99.90;;;;;;5037091;28;20068;-67
2021/03/13 08:39:25;;;;;;;3.33;2.40;;;5.80;99.90;;;;;;5056409;28;20093;-67
2021/03/13 08:41:56;;;;;;;7.30;2.75;;;5.90;99.90;;;;;;5038774;28;20059;-67
2021/03/13 08:44:36;;;;;;;7.80;3.25;;;6.00;99.90;;;;;;5054113;28;20032;-67
2021/03/13 08:47:07;;;;;;;4.68;2.70;;;6.00;99.90;;;;;;5051170;28;20036;-67
2021/03/13 08:49:34;;;;;;;5.45;2.72;;;6.00;99.90;;;;;;5038348;28;20136;-66
2021/03/13 08:52:09;;;;;;;4.32;2.67;;;6.00;99.90;;;;;;5021580;28;20025;-67
2021/03/13 08:54:41;;;;;;;5.75;3.40;;;5.90;99.90;;;;;;5021895;28;20828;-67
2021/03/13 08:57:12;;;;;;;5.95;3.05;;;5.90;99.90;;;;;;5055600;28;20036;-67
2021/03/13 09:00:04;;;;;;;5.35;3.35;;;6.00;99.90;;;;;;5055861;28;20040;-67
2021/03/13 09:02:34;;;;;;;4.85;3.10;;;6.00;99.90;;;;;;5051760;28;20059;-67
2021/03/13 09:05:10;;;;;;;4.47;3.20;;;6.00;99.90;;;;;;5056113;28;20052;-67
2021/03/13 09:07:36;;;;;;;3.85;2.80;;;6.00;99.90;;;;;;5054879;28;20028;-67
2021/03/13 09:10:04;;;;;;;3.65;2.75;;;5.90;99.90;;;;;;5032780;28;20044;-67
2021/03/13 09:12:32;;;;;;;5.28;2.70;;;6.00;99.90;;;;;;5040714;28;20048;-66
2021/03/13 09:15:00;;;;;;;5.57;2.80;;;6.00;99.90;;;;;;5044655;28;20474;-67
2021/03/13 09:17:30;;;;;;;6.85;3.30;;;6.00;99.90;;;;;;5044560;28;20091;-67
2021/03/13 09:20:01;;;;;;;4.65;2.83;;;6.00;99.90;;;;;;5054650;28;20045;-67
2021/03/13 09:22:27;;;;;;;5.25;2.90;;;6.10;99.90;;;;;;5061077;28;20036;-67
2021/03/13 09:24:55;;;;;;;4.03;2.83;;;6.10;99.90;;;;;;5036170;28;20032;-67
2021/03/13 09:27:32;;;;;;;5.43;2.85;;;6.00;99.90;;;;;;5053344;28;20170;-68
2021/03/13 09:29:59;;;;;;;5.07;2.47;;;6.10;99.90;;;;;;5059777;28;20111;-66
2021/03/13 09:32:26;;;;;;;5.07;3.38;;;6.20;99.90;;;;;;5059443;28;20090;-65
2021/03/13 09:34:54;;;;;;;4.18;3.03;;;6.20;99.90;;;;;;5059212;28;20488;-67
2021/03/13 09:37:28;;;;;;;4.80;2.72;;;6.20;99.90;;;;;;5056631;28;20052;-67
2021/03/13 09:40:01;;;;;;;5.97;2.28;;;6.30;99.90;;;;;;5054601;28;20678;-66
2021/03/13 09:42:28;;;;;;;4.97;2.40;;;6.40;99.90;;;;;;5059999;28;20039;-67
2021/03/13 09:44:59;;;;;;;5.97;3.08;;;6.50;99.90;;;;;;5052946;28;20562;-67
2021/03/13 09:47:45;;;;;;;3.53;1.88;;;6.50;99.90;;;;;;5054936;28;20520;-67
2021/03/13 09:50:29;;;;;;;3.75;2.10;;;6.50;99.90;;;;;;5059854;28;20165;-66
2021/03/13 09:52:56;;;;;;;4.95;2.08;;;6.50;99.90;;;;;;5048243;28;20078;-67
2021/03/13 09:55:26;;;;;;;3.45;2.10;;;6.50;99.90;;;;;;5059269;28;20036;-66
2021/03/13 09:57:54;;;;;;;3.33;2.00;;;6.60;99.90;;;;;;5037796;28;20029;-66
2021/03/13 10:00:27;;;;;;;2.80;2.05;;;6.60;99.90;;;;;;5057606;28;20040;-66
2021/03/13 10:02:55;;;;;;;5.05;2.55;;;6.70;99.90;;;;;;5041756;28;20075;-67
2021/03/13 10:05:28;;;;;;;3.88;1.75;;;6.90;99.90;;;;;;5058405;28;20135;-67
2021/03/13 10:07:53;;;;;;;2.90;1.73;;;7.00;99.90;;;;;;5052485;28;20037;-67
2021/03/13 10:10:26;;;;;;;1.65;1.35;;;7.00;99.90;;;;;;5041404;28;20607;-67
2021/03/13 10:12:58;;;;;;;10.88;5.28;;;7.10;99.90;;;;;;5058664;28;20021;-66
2021/03/13 10:15:25;;;;;;;2.42;1.45;;;7.30;99.90;;;;;;5059059;28;20028;-67
2021/03/13 10:18:09;;;;;;;2.80;1.33;;;7.40;99.90;;;;;;5055281;28;20033;-67
2021/03/13 10:20:45;;;;;;;3.40;1.60;;;7.50;99.90;;;;;;5058646;28;20040;-67
2021/03/13 10:23:13;;;;;;;1.73;1.25;;;7.60;99.90;;;;;;5058775;28;20497;-67
2021/03/13 10:25:52;;;;;;;1.38;1.00;;;7.70;99.90;;;;;;5057546;28;20722;-67
2021/03/13 10:28:18;;;;;;;2.17;1.20;;;7.70;99.90;;;;;;5039646;28;20040;-67
2021/03/13 10:30:45;;;;;;;1.92;0.90;;;7.70;99.90;;;;;;5058553;28;20078;-67
2021/03/13 10:33:12;;;;;;;1.38;1.02;;;7.70;99.90;;;;;;5058012;28;20128;-67
2021/03/13 10:35:38;;;;;;;1.92;0.93;;;7.80;99.90;;;;;;5039819;28;20056;-67
2021/03/13 10:38:15;;;;;;;1.77;1.00;;;7.80;99.90;;;;;;5023161;28;20043;-67
2021/03/13 10:40:49;;;;;;;1.00;0.90;;;7.70;99.90;;;;;;5058214;28;20414;-67
2021/03/13 10:43:23;;;;;;;1.85;0.93;;;7.80;99.90;;;;;;5040145;28;20040;-67
2021/03/13 10:45:58;;;;;;;1.63;0.80;;;7.80;99.90;;;;;;5055451;28;20063;-67
2021/03/13 10:48:26;;;;;;;1.92;0.80;;;7.90;99.90;;;;;;5057513;28;20848;-67
2021/03/13 10:50:52;;;;;;;1.27;0.65;;;7.90;99.90;;;;;;5039911;28;20436;-67
2021/03/13 10:53:30;;;;;;;1.30;0.82;;;8.00;99.90;;;;;;5058267;28;20035;-67
2021/03/13 10:55:59;;;;;;;1.02;0.80;;;8.20;99.90;;;;;;5051647;28;20033;-67
2021/03/13 10:58:26;;;;;;;1.65;0.70;;;8.20;99.90;;;;;;5057799;28;20037;-67
2021/03/13 11:00:52;;;;;;;0.93;0.60;;;8.20;99.90;;;;;;5054714;28;20385;-67
2021/03/13 11:03:18;;;;;;;1.73;0.93;;;8.30;99.90;;;;;;5054665;28;20024;-67
2021/03/13 11:05:46;;;;;;;5.85;3.40;;;8.40;99.90;;;;;;5055207;28;20037;-67
2021/03/13 11:08:12;;;;;;;1.70;0.73;;;8.50;99.90;;;;;;5036069;28;20040;-66
2021/03/13 11:10:38;;;;;;;3.10;0.98;;;8.50;99.90;;;;;;5057336;28;20037;-67
2021/03/13 11:13:04;;;;;;;2.25;1.00;;;8.60;99.90;;;;;;5045466;28;20045;-67
2021/03/13 11:15:30;;;;;;;1.00;0.65;;;8.50;99.90;;;;;;5056531;28;20028;-67
2021/03/13 11:17:56;;;;;;;2.15;1.00;;;8.50;99.90;;;;;;5056063;28;20024;-66
2021/03/13 11:20:22;;;;;;;1.33;0.93;;;8.50;99.90;;;;;;5057447;28;20103;-67
2021/03/13 11:22:48;;;;;;;1.67;0.68;;;8.80;99.90;;;;;;5039621;28;20040;-66
2021/03/13 11:25:14;;;;;;;0.80;0.70;;;9.20;99.90;;;;;;5058267;28;20032;-67
2021/03/13 11:27:40;;;;;;;1.95;0.70;;;9.50;99.90;;;;;;5058500;28;20106;-66
2021/03/13 11:30:08;;;;;;;1.20;0.60;;;9.70;99.90;;;;;;5059887;28;20044;-67
2021/03/13 11:32:34;;;;;;;1.45;0.77;;;9.60;99.90;;;;;;5056786;28;20111;-67
2021/03/13 11:35:00;;;;;;;1.23;0.63;;;9.80;99.90;;;;;;5039143;28;20036;-67
2021/03/13 11:37:26;;;;;;;1.50;0.63;;;10.00;99.90;;;;;;5038860;28;20036;-66
2021/03/13 11:39:51;;;;;;;2.78;0.75;;;9.90;99.90;;;;;;5039082;28;20110;-67
2021/03/13 11:42:17;;;;;;;1.42;0.70;;;9.90;99.90;;;;;;5038708;28;20521;-67
2021/03/13 11:44:43;;;;;;;2.47;1.00;;;10.10;99.90;;;;;;5054985;28;21030;-67
2021/03/13 11:47:09;;;;;;;2.33;0.68;;;10.10;99.90;;;;;;5055768;28;20501;-67
2021/03/13 11:49:35;;;;;;;0.60;0.50;;;10.30;99.90;;;;;;5050474;28;20071;-67
2021/03/13 11:52:01;;;;;;;3.90;0.70;;;10.50;99.90;;;;;;5038791;28;20123;-66
2021/03/13 11:54:27;;;;;;;1.35;0.63;;;10.60;99.90;;;;;;5056720;28;20025;-66
2021/03/13 11:56:53;;;;;;;0.80;0.52;;;10.70;99.90;;;;;;5049116;28;20075;-66
2021/03/13 11:59:18;;;;;;;1.55;0.63;;;11.00;99.90;;;;;;5056844;28;20519;-66
2021/03/13 12:01:44;;;;;;;0.70;0.50;;;11.00;99.90;;;;;;5050540;28;20032;-67
2021/03/13 12:04:10;;;;;;;0.77;0.68;;;11.00;99.90;;;;;;5056667;28;20032;-67
2021/03/13 12:06:36;;;;;;;1.65;0.70;;;11.00;99.90;;;;;;5037200;28;20572;-66
2021/03/13 12:09:02;;;;;;;2.78;0.82;;;11.20;99.90;;;;;;5039007;28;20028;-67
2021/03/13 12:11:28;;;;;;;1.38;0.40;;;11.30;99.90;;;;;;5055914;28;20073;-67
2021/03/13 12:13:54;;;;;;;0.90;0.40;;;11.10;99.90;;;;;;5051007;28;20025;-67
2021/03/13 12:16:20;;;;;;;7.18;1.20;;;11.20;99.90;;;;;;5053060;28;20663;-66
2021/03/13 12:18:45;;;;;;;2.25;1.35;;;11.10;99.90;;;;;;5056128;28;20036;-67
2021/03/13 12:21:11;;;;;;;9.27;3.90;;;11.20;99.90;;;;;;5056593;28;20029;-66
2021/03/13 12:23:36;;;;;;;2.75;0.98;;;11.20;99.90;;;;;;5052882;28;20029;-66
2021/03/13 12:26:02;;;;;;;9.90;5.22;;;11.30;99.90;;;;;;5053977;28;20473;-66
2021/03/13 12:28:28;;;;;;;2.22;1.02;;;11.20;99.90;;;;;;5037534;28;20024;-67
2021/03/13 12:30:53;;;;;;;6.18;3.47;;;11.30;99.90;;;;;;5056077;28;20659;-67
2021/03/13 12:33:19;;;;;;;2.88;0.93;;;11.50;99.90;;;;;;5055403;28;20036;-66
2021/03/13 12:35:45;;;;;;;4.45;2.20;;;11.70;99.90;;;;;;5055411;28;20102;-66
2021/03/13 12:38:11;;;;;;;2.35;1.00;;;11.80;99.90;;;;;;5055671;28;20131;-65
2021/03/13 12:40:37;;;;;;;7.88;3.55;;;11.60;99.90;;;;;;5033259;28;20091;-67
2021/03/13 12:43:03;;;;;;;8.52;4.88;;;11.50;99.90;;;;;;5057128;28;20040;-67
2021/03/13 12:45:29;;;;;;;5.22;2.75;;;11.30;99.90;;;;;;5055550;28;20043;-66
2021/03/13 12:47:54;;;;;;;3.83;1.98;;;11.20;99.90;;;;;;5055639;28;20036;-66
2021/03/13 12:50:20;;;;;;;9.07;3.63;;;11.10;99.90;;;;;;5055924;28;20039;-66
2021/03/13 12:52:46;;;;;;;3.28;2.10;;;11.00;99.90;;;;;;5055406;28;20028;-67
2021/03/13 12:55:15;;;;;;;2.88;1.65;;;10.90;99.90;;;;;;5055233;28;20028;-67
2021/03/13 12:57:41;;;;;;;2.38;1.30;;;10.70;99.90;;;;;;5054963;28;20040;-65
2021/03/13 13:00:08;;;;;;;5.75;2.20;;;10.60;99.90;;;;;;5050037;28;20028;-66
2021/03/13 13:02:35;;;;;;;4.05;1.60;;;10.50;99.90;;;;;;5037425;28;20029;-65
2021/03/13 13:05:02;;;;;;;4.32;0.82;;;10.20;99.90;;;;;;5055814;28;20032;-67
2021/03/13 13:07:28;;;;;;;5.70;1.50;;;9.90;99.90;;;;;;5037101;28;20040;-67